^^
Saratoga-Weather Station Historical Data
Daily Summary for September 16, 2020 Units:  English    Metric   Both
Daily Weekly Monthly Yearly Custom
  High: Low: Average:
Temperature: 68.4 °F 42.3 °F 56.7 °F
Dew Point: 44.8 °F 35.2 °F 39.6 °F
Humidity: 81% 34% 55%
Wind Speed: 6mph 0mph 1.2mph
Wind Gust: 9mph - -
Wind- - SSW
Pressure: 30.2 in 30.1 in -
Precipitation: 0 in    
Historical Graphs
 
 
Tabular Data for September 16, 2020
Time Temperature Dew Point Pressure Wind Wind Speed Wind Gust Humidity Rainfall Rate (Hourly) solar
00:00 51.4 °F 35.8 °F 30.2 in Calm   3 mph 55% 0 in 0 W/m2
00:05 51.3 °F 36.5 °F 30.2 in NNW 0.9 mph 1 mph 57% 0 in 0 W/m2
00:10 51.1 °F 35.4 °F 30.2 in NNW 2.9 mph 4 mph 55% 0 in 0 W/m2
00:15 51.3 °F 35.2 °F 30.2 in Calm   4 mph 54% 0 in 0 W/m2
00:20 51.4 °F 35.8 °F 30.2 in Calm   4 mph 55% 0 in 0 W/m2
00:25 51.4 °F 35.8 °F 30.2 in NE 0.9 mph 3 mph 55% 0 in 0 W/m2
00:30 51.3 °F 35.6 °F 30.2 in North 0.9 mph 4 mph 55% 0 in 0 W/m2
00:35 51.3 °F 35.6 °F 30.2 in NW 2.9 mph 3 mph 55% 0 in 0 W/m2
00:40 51.1 °F 36 °F 30.2 in South 0.9 mph 2 mph 56% 0 in 0 W/m2
00:45 51.1 °F 36.3 °F 30.2 in NNE 0.9 mph 2 mph 57% 0 in 0 W/m2
00:50 50.9 °F 36.1 °F 30.2 in NW 2 mph 2 mph 57% 0 in 0 W/m2
00:55 50.7 °F 36 °F 30.2 in WNW 2.9 mph 4 mph 57% 0 in 0 W/m2
01:00 50.5 °F 36.3 °F 30.2 in NNW 2.9 mph 4 mph 58% 0 in 0 W/m2
01:05 50.4 °F 36.5 °F 30.2 in Calm   2 mph 59% 0 in 0 W/m2
01:11 50.2 °F 36.3 °F 30.2 in WNW 2 mph 4 mph 59% 0 in 0 W/m2
01:16 50.2 °F 36.3 °F 30.2 in Calm   2 mph 59% 0 in 0 W/m2
01:21 50 °F 36.3 °F 30.2 in West 2 mph 4 mph 59% 0 in 0 W/m2
01:26 49.8 °F 36.9 °F 30.2 in SE 2 mph 2 mph 61% 0 in 0 W/m2
01:31 49.6 °F 36.3 °F 30.2 in ESE 0.9 mph 2 mph 60% 0 in 0 W/m2
01:36 49.6 °F 36.3 °F 30.2 in NW 0.9 mph 4 mph 60% 0 in 0 W/m2
01:41 49.5 °F 37 °F 30.2 in West 0.9 mph 1 mph 62% 0 in 0 W/m2
01:46 49.3 °F 37.2 °F 30.2 in SW 0.9 mph 4 mph 63% 0 in 0 W/m2
01:51 48.7 °F 37 °F 30.2 in SSW 0.9 mph 2 mph 64% 0 in 0 W/m2
01:56 48.4 °F 37.2 °F 30.2 in SSW 0.9 mph 2 mph 65% 0 in 0 W/m2
02:01 48 °F 36.9 °F 30.2 in Calm   3 mph 65% 0 in 0 W/m2
02:06 48 °F 36.9 °F 30.2 in Calm   1 mph 65% 0 in 0 W/m2
02:11 48.2 °F 37 °F 30.2 in Calm   1 mph 65% 0 in 0 W/m2
02:16 48.4 °F 36.3 °F 30.2 in Calm   2 mph 63% 0 in 0 W/m2
02:21 48.4 °F 36.3 °F 30.2 in ENE 0.9 mph 1 mph 63% 0 in 0 W/m2
02:26 48.4 °F 36.3 °F 30.2 in Calm   1 mph 63% 0 in 0 W/m2
02:31 48.2 °F 36.7 °F 30.2 in Calm   1 mph 64% 0 in 0 W/m2
02:36 48 °F 36.5 °F 30.2 in East 0.9 mph 2 mph 64% 0 in 0 W/m2
02:41 48 °F 36.5 °F 30.2 in Calm     64% 0 in 0 W/m2
02:46 47.8 °F 36.7 °F 30.2 in West 0.9 mph 2 mph 65% 0 in 0 W/m2
02:51 47.7 °F 36.9 °F 30.2 in WSW 0.9 mph 2 mph 66% 0 in 0 W/m2
02:56 47.5 °F 36.7 °F 30.2 in WNW 0.9 mph 2 mph 66% 0 in 0 W/m2
03:01 47.7 °F 36.9 °F 30.2 in WNW 0.9 mph 2 mph 66% 0 in 0 W/m2
03:06 47.5 °F 37 °F 30.2 in SW 0.9 mph 3 mph 67% 0 in 0 W/m2
03:11 47.3 °F 36.9 °F 30.2 in West 2 mph 2 mph 67% 0 in 0 W/m2
03:16 47.1 °F 36.7 °F 30.2 in Calm   3 mph 67% 0 in 0 W/m2
03:21 46.9 °F 36.9 °F 30.2 in Calm     68% 0 in 0 W/m2
03:26 46.6 °F 36.5 °F 30.2 in Calm   1 mph 68% 0 in 0 W/m2
03:31 46.6 °F 37.4 °F 30.2 in WSW 0.9 mph 2 mph 70% 0 in 0 W/m2
03:36 46.2 °F 36.7 °F 30.2 in Calm   2 mph 69% 0 in 0 W/m2
03:41 46.2 °F 36.7 °F 30.2 in Calm     69% 0 in 0 W/m2
03:46 46.2 °F 36.3 °F 30.2 in Calm   2 mph 68% 0 in 0 W/m2
03:51 46.4 °F 36.9 °F 30.2 in ESE 0.9 mph 2 mph 69% 0 in 0 W/m2
03:56 46.2 °F 37 °F 30.2 in Calm   1 mph 70% 0 in 0 W/m2
04:01 46 °F 36.9 °F 30.2 in Calm   1 mph 70% 0 in 0 W/m2
04:06 45.7 °F 36.9 °F 30.2 in NNW 0.9 mph 2 mph 71% 0 in 0 W/m2
04:11 45.3 °F 36.5 °F 30.2 in Calm   1 mph 71% 0 in 0 W/m2
04:16 45.3 °F 36.9 °F 30.2 in NNW 0.9 mph 1 mph 72% 0 in 0 W/m2
04:21 45.1 °F 36.7 °F 30.2 in Calm   2 mph 72% 0 in 0 W/m2
04:26 45 °F 36.5 °F 30.2 in Calm   1 mph 72% 0 in 0 W/m2
04:31 45 °F 36.5 °F 30.2 in West 0.9 mph 1 mph 72% 0 in 0 W/m2
04:36 45 °F 36.5 °F 30.2 in West 0.9 mph 2 mph 72% 0 in 0 W/m2
04:41 45 °F 36.5 °F 30.2 in West 0.9 mph 2 mph 72% 0 in 0 W/m2
04:47 44.8 °F 36.7 °F 30.2 in West 0.9 mph 2 mph 73% 0 in 0 W/m2
04:52 44.6 °F 36.5 °F 30.2 in Calm   1 mph 73% 0 in 0 W/m2
04:57 44.6 °F 36.5 °F 30.2 in West 0.9 mph 2 mph 73% 0 in 0 W/m2
05:02 44.4 °F 36.7 °F 30.2 in West 0.9 mph 1 mph 74% 0 in 0 W/m2
05:07 44.2 °F 36.5 °F 30.2 in WSW 0.9 mph 1 mph 74% 0 in 0 W/m2
05:12 44.2 °F 36.5 °F 30.2 in WSW 0.9 mph 2 mph 74% 0 in 0 W/m2
05:17 44.1 °F 36.3 °F 30.2 in Calm     74% 0 in 0 W/m2
05:22 43.9 °F 36.5 °F 30.2 in WSW 0.9 mph 2 mph 75% 0 in 0 W/m2
05:27 43.5 °F 36.5 °F 30.2 in WSW 0.9 mph 1 mph 76% 0 in 0 W/m2
05:32 43.3 °F 36.3 °F 30.2 in Calm   1 mph 76% 0 in 0 W/m2
05:37 43.3 °F 36.3 °F 30.2 in WSW 0.9 mph 2 mph 76% 0 in 0 W/m2
05:42 43.3 °F 36.3 °F 30.2 in Calm   1 mph 76% 0 in 0 W/m2
05:47 43.3 °F 36.3 °F 30.2 in Calm   2 mph 76% 0 in 0 W/m2
05:52 43.3 °F 36.7 °F 30.2 in Calm   1 mph 77% 0 in 5 W/m2
05:57 43.2 °F 36.5 °F 30.2 in Calm   1 mph 77% 0 in 7 W/m2
06:02 43 °F 36.7 °F 30.2 in Calm   1 mph 78% 0 in 9 W/m2
06:07 42.8 °F 36.5 °F 30.2 in Calm   1 mph 78% 0 in 12 W/m2
06:12 42.6 °F 36.3 °F 30.2 in Calm     78% 0 in 14 W/m2
06:17 42.4 °F 36.1 °F 30.2 in WSW 1 mph 1 mph 78% 0 in 16 W/m2
06:22 42.4 °F 36.1 °F 30.2 in Calm     78% 0 in 19 W/m2
06:27 42.3 °F 36.1 °F 30.2 in Calm     79% 0 in 21 W/m2
06:32 42.3 °F 36.5 °F 30.2 in Calm   1 mph 80% 0 in 23 W/m2
06:37 42.3 °F 36.5 °F 30.2 in Calm   1 mph 80% 0 in 25 W/m2
06:42 42.3 °F 36.9 °F 30.2 in Calm     81% 0 in 28 W/m2
06:47 42.4 °F 36.7 °F 30.2 in Calm   1 mph 80% 0 in 30 W/m2
06:52 42.6 °F 36.9 °F 30.2 in Calm     80% 0 in 32 W/m2
06:57 43.2 °F 37 °F 30.2 in Calm     79% 0 in 33 W/m2
07:02 43.5 °F 37 °F 30.2 in Calm     78% 0 in 35 W/m2
07:07 43.7 °F 37 °F 30.2 in Calm     77% 0 in 35 W/m2
07:12 43.9 °F 36.9 °F 30.2 in Calm     76% 0 in 37 W/m2
07:17 44.1 °F 36.7 °F 30.2 in Calm   1 mph 75% 0 in 39 W/m2
07:22 44.4 °F 36.7 °F 30.2 in WSW 0.9 mph 2 mph 74% 0 in 40 W/m2
07:28 45.1 °F 36.7 °F 30.2 in WNW 0.9 mph 2 mph 72% 0 in 42 W/m2
07:33 45.7 °F 37.2 °F 30.2 in WNW 0.9 mph 3 mph 72% 0 in 44 W/m2
07:38 45.9 °F 37 °F 30.2 in WNW 0.9 mph 1 mph 71% 0 in 46 W/m2
07:43 46.2 °F 37 °F 30.2 in WNW 0.9 mph 3 mph 70% 0 in 47 W/m2
07:48 46.6 °F 37.4 °F 30.2 in WNW 0.9 mph 2 mph 70% 0 in 158 W/m2
07:53 46.8 °F 37.6 °F 30.2 in NW 2 mph 2 mph 70% 0 in 251 W/m2
07:58 47.1 °F 37.4 °F 30.2 in NW 2 mph 2 mph 69% 0 in 269 W/m2
08:03 47.7 °F 37.9 °F 30.2 in Calm   1 mph 69% 0 in 281 W/m2
08:08 47.8 °F 38.1 °F 30.2 in Calm   1 mph 69% 0 in 297 W/m2
08:13 48.6 °F 38.8 °F 30.2 in Calm   1 mph 69% 0 in 311 W/m2
08:18 49.1 °F 39.4 °F 30.2 in Calm     69% 0 in 323 W/m2
08:23 49.8 °F 39.4 °F 30.2 in Calm   1 mph 67% 0 in 338 W/m2
08:28 50.5 °F 39.2 °F 30.2 in Calm     65% 0 in 353 W/m2
08:33 51.1 °F 39.4 °F 30.2 in Calm     64% 0 in 364 W/m2
08:38 51.4 °F 38.5 °F 30.2 in ENE 2.9 mph 3 mph 61% 0 in 380 W/m2
08:43 51.8 °F 38.8 °F 30.2 in NE 2 mph 4 mph 61% 0 in 394 W/m2
08:48 52.2 °F 39.2 °F 30.2 in NE 2 mph 2 mph 61% 0 in 408 W/m2
08:53 52 °F 38.1 °F 30.2 in ENE 0.9 mph 1 mph 59% 0 in 418 W/m2
08:58 52.2 °F 38.3 °F 30.2 in Calm   3 mph 59% 0 in 434 W/m2
09:03 52.3 °F 38.5 °F 30.2 in East 2 mph 3 mph 59% 0 in 446 W/m2
09:08 52.7 °F 38.3 °F 30.2 in ESE 4 mph 6 mph 58% 0 in 457 W/m2
09:13 52.9 °F 38.5 °F 30.2 in ENE 0.9 mph 4 mph 58% 0 in 468 W/m2
09:18 53.2 °F 38.8 °F 30.2 in ESE 2 mph 2 mph 58% 0 in 483 W/m2
09:23 53.6 °F 39.2 °F 30.2 in East 2.9 mph 3 mph 58% 0 in 496 W/m2
09:28 54 °F 38.7 °F 30.2 in ESE 6 mph 6 mph 56% 0 in 510 W/m2
09:33 54.3 °F 39.9 °F 30.2 in East 2 mph 4 mph 58% 0 in 519 W/m2
09:39 54.9 °F 39.9 °F 30.2 in NNW 2 mph 5 mph 57% 0 in 534 W/m2
09:44 55.2 °F 39.7 °F 30.2 in SE 2.9 mph 4 mph 56% 0 in 545 W/m2
09:49 55.4 °F 39.6 °F 30.2 in ENE 0.9 mph 4 mph 55% 0 in 557 W/m2
09:54 55.2 °F 39.7 °F 30.2 in Calm   3 mph 56% 0 in 568 W/m2
09:59 55.2 °F 39.4 °F 30.2 in ENE 0.9 mph 2 mph 55% 0 in 580 W/m2
10:04 55.8 °F 39.9 °F 30.2 in NE 0.9 mph 4 mph 55% 0 in 591 W/m2
10:09 56.3 °F 41.2 °F 30.2 in SSE 2 mph 3 mph 57% 0 in 601 W/m2
10:14 56.5 °F 40.5 °F 30.2 in East 0.9 mph 3 mph 55% 0 in 74 W/m2
10:19 56.7 °F 40.3 °F 30.2 in ENE 2.9 mph 6 mph 54% 0 in 107 W/m2
10:24 56.5 °F 41 °F 30.2 in ESE 2 mph 4 mph 56% 0 in 629 W/m2
10:29 56.8 °F 41.4 °F 30.2 in Calm   2 mph 56% 0 in 642 W/m2
10:34 57.4 °F 40.8 °F 30.2 in NE 0.9 mph 3 mph 54% 0 in 652 W/m2
10:39 57.7 °F 41.2 °F 30.2 in Calm   3 mph 54% 0 in 663 W/m2
10:44 57.9 °F 40.8 °F 30.2 in East 0.9 mph 8 mph 53% 0 in 673 W/m2
10:49 57.7 °F 40.3 °F 30.2 in ENE 2 mph 5 mph 52% 0 in 684 W/m2
10:54 57.9 °F 41.4 °F 30.2 in East 2 mph 7 mph 54% 0 in 693 W/m2
10:59 58.3 °F 41.2 °F 30.2 in SE 0.9 mph 4 mph 53% 0 in 703 W/m2
11:04 58.6 °F 40.6 °F 30.2 in NE 0.9 mph 3 mph 51% 0 in 710 W/m2
11:09 58.6 °F 40.6 °F 30.2 in Calm   3 mph 51% 0 in 721 W/m2
11:14 58.8 °F 41.2 °F 30.2 in ESE 2.9 mph 3 mph 52% 0 in 728 W/m2
11:19 59.4 °F 41.7 °F 30.2 in East 0.9 mph 2 mph 52% 0 in 737 W/m2
11:24 59.7 °F 42.1 °F 30.2 in SE 2 mph 4 mph 52% 0 in 745 W/m2
11:29 60.1 °F 42.4 °F 30.2 in SSE 2 mph 4 mph 52% 0 in 754 W/m2
11:34 60.1 °F 40.8 °F 30.2 in WNW 2.9 mph 3 mph 49% 0 in 759 W/m2
11:39 59.9 °F 41.7 °F 30.2 in ENE 2 mph 2 mph 51% 0 in 768 W/m2
11:44 60.4 °F 42.8 °F 30.2 in SE 2 mph 6 mph 52% 0 in 773 W/m2
11:49 60.8 °F 41.5 °F 30.2 in ENE 2 mph 4 mph 49% 0 in 780 W/m2
11:54 61.2 °F 43 °F 30.2 in East 2.9 mph 6 mph 51% 0 in 789 W/m2
11:59 61.5 °F 41.2 °F 30.2 in WSW 0.9 mph 2 mph 47% 0 in 791 W/m2
12:04 61.7 °F 42.3 °F 30.2 in NNE 2 mph 6 mph 49% 0 in 800 W/m2
12:09 62.4 °F 41.4 °F 30.2 in Calm   2 mph 46% 0 in 803 W/m2
12:14 62.8 °F 40.5 °F 30.2 in NE 0.9 mph 6 mph 44% 0 in 807 W/m2
12:19 62.8 °F 41.7 °F 30.2 in SSE 0.9 mph 3 mph 46% 0 in 812 W/m2
12:24 63.1 °F 41.5 °F 30.2 in NE 0.9 mph 3 mph 45% 0 in 816 W/m2
12:29 63.3 °F 42.3 °F 30.2 in Calm   1 mph 46% 0 in 817 W/m2
12:34 63.1 °F 40.3 °F 30.2 in SW 2 mph 5 mph 43% 0 in 823 W/m2
12:39 63.3 °F 41.5 °F 30.2 in Calm   1 mph 45% 0 in 828 W/m2
12:44 63.3 °F 40.5 °F 30.2 in West 0.9 mph 3 mph 43% 0 in 830 W/m2
12:49 63.3 °F 39.9 °F 30.2 in North 0.9 mph 4 mph 42% 0 in 833 W/m2
12:54 63.3 °F 41 °F 30.2 in NNE 2 mph 3 mph 44% 0 in 833 W/m2
12:59 63.9 °F 39.7 °F 30.2 in Calm   8 mph 41% 0 in 837 W/m2
13:04 64 °F 41.7 °F 30.2 in West 6 mph 8 mph 44% 0 in 835 W/m2
13:09 64 °F 40.5 °F 30.2 in SW 4 mph 8 mph 42% 0 in 833 W/m2
13:14 63.7 °F 40.8 °F 30.2 in West 0.9 mph 3 mph 43% 0 in 830 W/m2
13:19 63.7 °F 41.4 °F 30.2 in East 2.9 mph 8 mph 44% 0 in 838 W/m2
13:24 63.9 °F 41 °F 30.2 in WNW 2 mph 7 mph 43% 0 in 838 W/m2
13:29 63.7 °F 40.8 °F 30.2 in SW 0.9 mph 4 mph 43% 0 in 838 W/m2
13:34 63.9 °F 40.3 °F 30.2 in Calm   7 mph 42% 0 in 838 W/m2
13:39 63.9 °F 42.6 °F 30.2 in ESE 2 mph 4 mph 46% 0 in 840 W/m2
13:44 64.2 °F 41.9 °F 30.2 in ESE 0.9 mph 1 mph 44% 0 in 837 W/m2
13:49 64.8 °F 41.2 °F 30.2 in WSW 2 mph 3 mph 42% 0 in 838 W/m2
13:54 64.9 °F 41.9 °F 30.2 in NNW 2 mph 3 mph 43% 0 in 840 W/m2
13:59 65.1 °F 40.8 °F 30.2 in East 4 mph 7 mph 41% 0 in 837 W/m2
14:04 65.1 °F 42.1 °F 30.1 in SE 2 mph 4 mph 43% 0 in 831 W/m2
14:09 65.5 °F 41.7 °F 30.2 in NE 0.9 mph 4 mph 42% 0 in 828 W/m2
14:14 65.5 °F 41.2 °F 30.1 in NNW 2 mph 5 mph 41% 0 in 826 W/m2
14:19 65.5 °F 41.7 °F 30.1 in NNW 4 mph 4 mph 42% 0 in 824 W/m2
14:24 65.7 °F 41.9 °F 30.1 in WNW 0.9 mph 3 mph 42% 0 in 819 W/m2
14:29 65.7 °F 41.4 °F 30.1 in Calm   9 mph 41% 0 in 812 W/m2
14:34 65.7 °F 42.6 °F 30.1 in East 0.9 mph 2 mph 43% 0 in 812 W/m2
14:39 65.8 °F 40.8 °F 30.1 in NE 0.9 mph 4 mph 40% 0 in 809 W/m2
14:45 65.5 °F 40.5 °F 30.1 in WSW 4 mph 6 mph 40% 0 in 807 W/m2
14:50 65.5 °F 41.7 °F 30.1 in Calm   2 mph 42% 0 in 802 W/m2
14:55 66 °F 44.1 °F 30.1 in NW 2.9 mph 4 mph 45% 0 in 803 W/m2
15:00 66.4 °F 41.4 °F 30.1 in WSW 2 mph 2 mph 40% 0 in 803 W/m2
15:05 66.9 °F 42.4 °F 30.1 in WSW 0.9 mph 1 mph 41% 0 in 789 W/m2
15:10 67.5 °F 41.7 °F 30.1 in WNW 0.9 mph 4 mph 39% 0 in 833 W/m2
15:15 67.8 °F 43.3 °F 30.1 in Calm   3 mph 41% 0 in 798 W/m2
15:20 68.4 °F 42.4 °F 30.1 in Calm   3 mph 39% 0 in 729 W/m2
15:25 68.4 °F 43.7 °F 30.1 in NNW 2 mph 3 mph 41% 0 in 828 W/m2
15:30 68.4 °F 43.7 °F 30.1 in ESE 2 mph 5 mph 41% 0 in 563 W/m2
15:35 68.2 °F 42.3 °F 30.1 in SW 2 mph 4 mph 39% 0 in 619 W/m2
15:40 67.8 °F 41.4 °F 30.1 in NNE 2.9 mph 4 mph 38% 0 in 874 W/m2
15:45 67.8 °F 41.4 °F 30.1 in NNW 2 mph 7 mph 38% 0 in 791 W/m2
15:50 67.6 °F 41.7 °F 30.1 in NNW 0.9 mph 4 mph 39% 0 in 640 W/m2
15:55 67.5 °F 41 °F 30.1 in NNW 2 mph 2 mph 38% 0 in 638 W/m2
16:00 67.5 °F 43 °F 30.1 in SE 0.9 mph 4 mph 41% 0 in 338 W/m2
16:05 66.9 °F 41.9 °F 30.1 in WSW 2 mph 2 mph 40% 0 in 519 W/m2
16:10 66.7 °F 41 °F 30.1 in SW 0.9 mph 3 mph 39% 0 in 468 W/m2
16:15 66.6 °F 40.8 °F 30.1 in NNW 0.9 mph 3 mph 39% 0 in 640 W/m2
16:21 66.7 °F 41.7 °F 30.1 in West 2 mph 8 mph 40% 0 in 327 W/m2
16:26 66.4 °F 41.4 °F 30.1 in NNE 2 mph 6 mph 40% 0 in 332 W/m2
16:31 66.4 °F 41.4 °F 30.1 in East 0.9 mph 8 mph 40% 0 in 339 W/m2
16:36 66.6 °F 41.5 °F 30.1 in West 4 mph 4 mph 40% 0 in 329 W/m2
16:41 66.6 °F 42.8 °F 30.1 in NNW 4 mph 5 mph 42% 0 in 297 W/m2
16:46 66.6 °F 42.1 °F 30.1 in WNW 2 mph 6 mph 41% 0 in 281 W/m2
16:51 66.4 °F 41.9 °F 30.1 in ENE 0.9 mph 4 mph 41% 0 in 301 W/m2
16:56 66.4 °F 42.6 °F 30.1 in WNW 2.9 mph 4 mph 42% 0 in 392 W/m2
17:01 66.4 °F 41.9 °F 30.1 in NNW 2 mph 3 mph 41% 0 in 329 W/m2
17:06 66.6 °F 42.1 °F 30.1 in WNW 2.9 mph 5 mph 41% 0 in 385 W/m2
17:11 66.6 °F 42.1 °F 30.1 in NW 0.9 mph 2 mph 41% 0 in 355 W/m2
17:16 66.6 °F 42.1 °F 30.1 in NNW 2.9 mph 4 mph 41% 0 in 281 W/m2
17:21 66.6 °F 42.8 °F 30.1 in NE 0.9 mph 3 mph 42% 0 in 220 W/m2
17:26 66.6 °F 42.1 °F 30.1 in WNW 2.9 mph 3 mph 41% 0 in 311 W/m2
17:31 66.6 °F 42.1 °F 30.1 in NE 0.9 mph 3 mph 41% 0 in 392 W/m2
17:36 66.7 °F 44.8 °F 30.1 in NNE 2 mph 6 mph 45% 0 in 315 W/m2
17:41 66.9 °F 41.9 °F 30.1 in NE 0.9 mph 2 mph 40% 0 in 288 W/m2
17:46 67.1 °F 41.9 °F 30.1 in NW 0.9 mph 6 mph 40% 0 in 359 W/m2
17:51 66.9 °F 42.4 °F 30.1 in NNW 0.9 mph 5 mph 41% 0 in 564 W/m2
17:56 67.5 °F 41 °F 30.1 in NE 0.9 mph 6 mph 38% 0 in 510 W/m2
18:01 67.6 °F 41.7 °F 30.1 in NE 2.9 mph 8 mph 39% 0 in 441 W/m2
18:06 67.6 °F 40.5 °F 30.1 in NW 4.9 mph 6 mph 37% 0 in 417 W/m2
18:11 68.2 °F 41.5 °F 30.1 in SW 0.9 mph 8 mph 38% 0 in 397 W/m2
18:16 68.4 °F 41 °F 30.1 in WNW 2.9 mph 3 mph 37% 0 in 385 W/m2
18:21 68.2 °F 40.3 °F 30.1 in West 2 mph 7 mph 36% 0 in 373 W/m2
18:26 68.2 °F 39.6 °F 30.1 in NNW 2 mph 7 mph 35% 0 in 362 W/m2
18:31 67.8 °F 39.2 °F 30.1 in West 2.9 mph 8 mph 35% 0 in 348 W/m2
18:36 67.5 °F 38.8 °F 30.1 in WNW 0.9 mph 6 mph 35% 0 in 334 W/m2
18:41 67.5 °F 39.6 °F 30.1 in NW 2 mph 7 mph 36% 0 in 320 W/m2
18:46 67.6 °F 39 °F 30.1 in NNW 2 mph 4 mph 35% 0 in 309 W/m2
18:51 67.6 °F 39.7 °F 30.1 in ENE 2 mph 2 mph 36% 0 in 294 W/m2
18:56 67.5 °F 38.8 °F 30.1 in North 2.9 mph 5 mph 35% 0 in 281 W/m2
19:01 67.8 °F 39.2 °F 30.1 in Calm   2 mph 35% 0 in 265 W/m2
19:06 68.2 °F 38.7 °F 30.1 in NW 2 mph 7 mph 34% 0 in 257 W/m2
19:11 67.6 °F 39 °F 30.1 in WSW 4 mph 7 mph 35% 0 in 241 W/m2
19:17 67.6 °F 39 °F 30.1 in NNE 0.9 mph 3 mph 35% 0 in 227 W/m2
19:22 67.8 °F 39.9 °F 30.1 in WNW 0.9 mph 7 mph 36% 0 in 213 W/m2
19:27 67.8 °F 39.2 °F 30.1 in West 2 mph 2 mph 35% 0 in 195 W/m2
19:32 67.6 °F 39 °F 30.1 in NE 0.9 mph 2 mph 35% 0 in 181 W/m2
19:37 67.5 °F 38.8 °F 30.1 in Calm   2 mph 35% 0 in 163 W/m2
19:42 67.5 °F 40.3 °F 30.1 in Calm   1 mph 37% 0 in 155 W/m2
19:47 67.5 °F 40.3 °F 30.1 in WNW 2 mph 2 mph 37% 0 in 139 W/m2
19:52 67.5 °F 43.5 °F 30.1 in Calm   2 mph 42% 0 in 123 W/m2
19:57 67.6 °F 43.2 °F 30.1 in WNW 0.9 mph 2 mph 41% 0 in 114 W/m2
20:02 67.6 °F 43.7 °F 30.1 in WNW 2.9 mph 3 mph 42% 0 in 100 W/m2
20:07 66.9 °F 41.2 °F 30.1 in West 2 mph 6 mph 39% 0 in 88 W/m2
20:12 66.2 °F 41.7 °F 30.1 in West 0.9 mph 2 mph 41% 0 in 76 W/m2
20:17 66 °F 42.8 °F 30.1 in West 0.9 mph 6 mph 43% 0 in 65 W/m2
20:22 65.8 °F 42.8 °F 30.1 in West 2 mph 3 mph 43% 0 in 54 W/m2
20:27 65.5 °F 43 °F 30.1 in WSW 2.9 mph 3 mph 44% 0 in 46 W/m2
20:32 64.9 °F 43.2 °F 30.1 in WSW 0.9 mph 2 mph 45% 0 in 37 W/m2
20:37 64.6 °F 42.3 °F 30.1 in WSW 0.9 mph 3 mph 44% 0 in 30 W/m2
20:42 64 °F 42.3 °F 30.1 in WSW 2 mph 4 mph 45% 0 in 25 W/m2
20:47 63.3 °F 42.8 °F 30.1 in WSW 0.9 mph 2 mph 47% 0 in 19 W/m2
20:52 63 °F 43 °F 30.1 in Calm   1 mph 48% 0 in 16 W/m2
20:58 62.6 °F 42.1 °F 30.1 in Calm   2 mph 47% 0 in 12 W/m2
21:03 62.2 °F 42.8 °F 30.1 in West 2 mph 2 mph 49% 0 in 11 W/m2
21:08 61.7 °F 42.3 °F 30.1 in West 0.9 mph 2 mph 49% 0 in 7 W/m2
21:13 61.2 °F 42.4 °F 30.1 in West 0.9 mph 2 mph 50% 0 in 5 W/m2
21:18 60.8 °F 43 °F 30.1 in West 0.9 mph 2 mph 52% 0 in 0 W/m2
21:23 60.4 °F 43.2 °F 30.1 in Calm   1 mph 53% 0 in 0 W/m2
21:28 60.1 °F 43.3 °F 30.1 in West 0.9 mph 1 mph 54% 0 in 0 W/m2
21:33 59.5 °F 43.3 °F 30.1 in West 0.9 mph 1 mph 55% 0 in 0 W/m2
21:38 59 °F 43.3 °F 30.1 in West 2 mph 3 mph 56% 0 in 0 W/m2
21:43 58.6 °F 43.5 °F 30.1 in West 0.9 mph 2 mph 57% 0 in 0 W/m2
21:48 58.3 °F 43.5 °F 30.1 in West 0.9 mph 3 mph 58% 0 in 0 W/m2
21:53 57.9 °F 43.2 °F 30.1 in West 0.9 mph 2 mph 58% 0 in 0 W/m2
21:58 57.7 °F 43.5 °F 30.1 in West 0.9 mph 2 mph 59% 0 in 0 W/m2
22:03 57.6 °F 43.3 °F 30.1 in WNW 2 mph 2 mph 59% 0 in 0 W/m2
22:08 57.2 °F 43.5 °F 30.1 in West 2.9 mph 6 mph 60% 0 in 0 W/m2
22:13 57.2 °F 43.5 °F 30.1 in WNW 0.9 mph 2 mph 60% 0 in 0 W/m2
22:18 57 °F 43.7 °F 30.1 in WNW 2 mph 5 mph 61% 0 in 0 W/m2
22:23 56.8 °F 43.2 °F 30.1 in West 2.9 mph 4 mph 60% 0 in 0 W/m2
22:28 56.8 °F 43.2 °F 30.1 in West 4 mph 6 mph 60% 0 in 0 W/m2
22:33 57 °F 42.8 °F 30.1 in West 0.9 mph 4 mph 59% 0 in 0 W/m2
22:38 57 °F 41.9 °F 30.1 in WNW 2 mph 6 mph 57% 0 in 0 W/m2
22:43 57.2 °F 42.1 °F 30.1 in West 4 mph 5 mph 57% 0 in 0 W/m2
22:48 57.2 °F 41.7 °F 30.1 in WSW 2.9 mph 5 mph 56% 0 in 0 W/m2
22:53 57.2 °F 41.7 °F 30.1 in West 2 mph 3 mph 56% 0 in 0 W/m2
22:58 57 °F 41.5 °F 30.1 in WNW 2 mph 5 mph 56% 0 in 0 W/m2
Juneau County Weather
Compliments of Weather Underground - 4 mb